Time;durP1;ratioP1;P1;durP2;ratioP2;P2;SDS_P1;SDS_P2;PMS_P1;PMS_P2;Temp;Humidity;BMP_temperature;BMP_pressure;BME280_temperature;BME280_humidity;BME280_pressure;Samples;Min_cycle;Max_cycle;Signal;HPM_P1;HPM_P2
2022/09/30 00:00:12;;;;;;;;;;;;;;;19.42;49.67;100737.38;5067395;28;19921;-53
2022/09/30 00:02:37;;;;;;;;;;;;;;;19.41;49.66;100732.97;5067161;28;19980;-53
2022/09/30 00:05:03;;;;;;;;;;;;;;;19.40;49.68;100731.31;5067381;28;19916;-51
2022/09/30 00:07:28;;;;;;;;;;;;;;;19.40;49.94;100725.91;5067438;28;19935;-54
2022/09/30 00:09:54;;;;;;;;;;;;;;;19.39;49.84;100726.94;5067316;28;19908;-54
2022/09/30 00:12:19;;;;;;;;;;;;;;;19.38;49.87;100723.41;5067245;28;19908;-52
2022/09/30 00:14:44;;;;;;;;;;;;;;;19.37;49.78;100724.44;5066781;28;19909;-53
2022/09/30 00:17:09;;;;;;;;;;;;;;;19.35;49.78;100723.75;5067417;28;19909;-54
2022/09/30 00:19:34;;;;;;;;;;;;;;;19.35;49.86;100725.63;5067451;28;19916;-50
2022/09/30 00:21:59;;;;;;;;;;;;;;;19.35;49.76;100728.31;5066603;28;19909;-52
2022/09/30 00:24:25;;;;;;;;;;;;;;;19.34;49.67;100729.34;5067135;28;19913;-49
2022/09/30 00:26:50;;;;;;;;;;;;;;;19.33;49.86;100723.09;5067135;28;19912;-53
2022/09/30 00:29:15;;;;;;;;;;;;;;;19.33;49.60;100730.34;5066700;28;19948;-53
2022/09/30 00:31:40;;;;;;;;;;;;;;;19.31;49.86;100722.44;5066634;28;19915;-51
2022/09/30 00:34:05;;;;;;;;;;;;;;;19.30;49.80;100720.75;5067413;28;19912;-51
2022/09/30 00:36:44;;;;;;;;;;;;;;;19.29;49.43;100721.78;5066229;28;20386;-48
2022/09/30 00:39:14;;;;;;;;;;;;;;;19.30;49.87;100722.63;5067285;28;19932;-52
2022/09/30 00:41:39;;;;;;;;;;;;;;;19.28;49.79;100730.03;5066440;28;19924;-51
2022/09/30 00:44:23;;;;;;;;;;;;;;;19.27;49.76;100731.88;5066437;28;19917;-48
2022/09/30 00:46:48;;;;;;;;;;;;;;;19.27;49.86;100741.81;5066968;28;19952;-54
2022/09/30 00:49:20;;;;;;;;;;;;;;;19.25;49.76;100742.00;5066785;28;19916;-54
2022/09/30 00:51:46;;;;;;;;;;;;;;;19.25;49.58;100739.31;5065925;28;19992;-53
2022/09/30 00:54:13;;;;;;;;;;;;;;;19.23;49.57;100736.78;5066746;28;19909;-52
2022/09/30 00:56:40;;;;;;;;;;;;;;;19.22;49.68;100745.88;5080901;28;19999;-53
2022/09/30 00:59:32;;;;;;;;;;;;;;;19.23;49.72;100752.09;5078348;28;19924;-54
2022/09/30 01:01:57;;;;;;;;;;;;;;;19.21;49.79;100752.28;5047827;28;20091;-53
2022/09/30 01:04:23;;;;;;;;;;;;;;;19.21;49.54;100757.69;5065099;28;19916;-53
2022/09/30 01:06:49;;;;;;;;;;;;;;;19.20;49.44;100753.31;5065872;28;20364;-53
2022/09/30 01:09:14;;;;;;;;;;;;;;;19.19;49.80;100756.16;5066532;28;20361;-54
2022/09/30 01:11:39;;;;;;;;;;;;;;;19.20;49.62;100747.09;5065741;28;19987;-54
2022/09/30 01:14:06;;;;;;;;;;;;;;;19.18;49.47;100746.41;5065775;28;19930;-52
2022/09/30 01:16:31;;;;;;;;;;;;;;;19.17;49.81;100744.72;5098727;28;19909;-54
2022/09/30 01:19:03;;;;;;;;;;;;;;;19.16;49.72;100765.47;5066164;28;19947;-53
2022/09/30 01:22:04;;;;;;;;;;;;;;;19.15;49.53;100760.22;5065445;28;19912;-53
2022/09/30 01:24:39;;;;;;;;;;;;;;;19.15;49.47;100765.63;5023492;28;19918;-50
2022/09/30 01:27:07;;;;;;;;;;;;;;;19.13;49.52;100763.09;5039741;28;19996;-54
2022/09/30 01:29:55;;;;;;;;;;;;;;;19.13;49.59;100760.41;5023092;28;19967;-53
2022/09/30 01:32:34;;;;;;;;;;;;;;;19.12;49.35;100756.03;5039758;28;19909;-51
2022/09/30 01:35:16;;;;;;;;;;;;;;;19.12;49.45;100752.50;5038037;28;20115;-54
2022/09/30 01:37:51;;;;;;;;;;;;;;;19.10;49.53;100749.97;5021968;28;19918;-53
2022/09/30 01:40:25;;;;;;;;;;;;;;;19.10;49.50;100746.44;5003795;28;19916;-55
2022/09/30 01:43:04;;;;;;;;;;;;;;;19.09;49.44;100751.00;5003103;28;19976;-55
2022/09/30 01:45:43;;;;;;;;;;;;;;;19.08;49.54;100749.31;5019794;28;19913;-53
2022/09/30 01:48:09;;;;;;;;;;;;;;;19.08;49.65;100753.88;5019852;28;20574;-55
2022/09/30 01:50:34;;;;;;;;;;;;;;;19.06;49.59;100748.63;5003213;28;19910;-55
2022/09/30 01:53:06;;;;;;;;;;;;;;;19.07;49.37;100752.16;5010959;28;19913;-54
2022/09/30 01:55:32;;;;;;;;;;;;;;;19.05;49.49;100755.03;5039547;28;19909;-54
2022/09/30 01:58:00;;;;;;;;;;;;;;;19.03;49.42;100751.69;5047494;28;19909;-54
2022/09/30 02:00:25;;;;;;;;;;;;;;;19.02;49.40;100747.28;5077061;28;19917;-54
2022/09/30 02:02:52;;;;;;;;;;;;;;;19.02;49.53;100752.69;5049739;28;19915;-53
2022/09/30 02:05:36;;;;;;;;;;;;;;;19.02;49.41;100751.84;5076702;28;19919;-54
2022/09/30 02:08:03;;;;;;;;;;;;;;;19.01;49.68;100755.56;5045210;28;19909;-51
2022/09/30 02:10:30;;;;;;;;;;;;;;;19.01;49.56;100752.88;5084592;28;19935;-54
2022/09/30 02:12:57;;;;;;;;;;;;;;;18.98;49.63;100746.78;5063113;28;19920;-52
2022/09/30 02:15:24;;;;;;;;;;;;;;;19.00;49.35;100753.88;5063487;28;19912;-54
2022/09/30 02:17:57;;;;;;;;;;;;;;;18.97;49.22;100750.50;5063706;28;19948;-53
2022/09/30 02:20:27;;;;;;;;;;;;;;;18.97;49.54;100753.19;5063423;28;19913;-51
2022/09/30 02:22:57;;;;;;;;;;;;;;;18.96;49.51;100756.91;5063396;28;19940;-51
2022/09/30 02:25:24;;;;;;;;;;;;;;;18.95;49.64;100752.56;5065027;28;19921;-52
2022/09/30 02:27:55;;;;;;;;;;;;;;;18.95;49.61;100754.41;5096706;28;19909;-51
2022/09/30 02:30:20;;;;;;;;;;;;;;;18.93;49.62;100759.94;5096734;28;19954;-47
2022/09/30 02:32:47;;;;;;;;;;;;;;;18.94;49.38;100766.19;5097032;28;19916;-54
2022/09/30 02:35:16;;;;;;;;;;;;;;;18.93;49.43;100765.34;5096628;28;19935;-54
2022/09/30 02:37:42;;;;;;;;;;;;;;;18.93;49.28;100756.41;5107503;28;19943;-51
2022/09/30 02:40:09;;;;;;;;;;;;;;;18.92;49.28;100760.97;5084690;28;20361;-52
2022/09/30 02:42:34;;;;;;;;;;;;;;;18.91;49.14;100761.16;5084231;28;19915;-51
2022/09/30 02:45:02;;;;;;;;;;;;;;;18.90;49.26;100757.63;5084040;28;19913;-55
2022/09/30 02:47:33;;;;;;;;;;;;;;;18.89;49.29;100764.00;5084640;28;19908;-51
2022/09/30 02:49:58;;;;;;;;;;;;;;;18.89;49.32;100766.69;5082753;28;19908;-54
2022/09/30 02:52:25;;;;;;;;;;;;;;;18.89;49.63;100760.47;5066874;28;19913;-54
2022/09/30 02:55:10;;;;;;;;;;;;;;;18.88;49.27;100769.56;5063407;28;19972;-53
2022/09/30 02:57:36;;;;;;;;;;;;;;;18.86;49.44;100772.44;5063688;28;19909;-54
2022/09/30 03:00:01;;;;;;;;;;;;;;;18.85;49.09;100769.91;5063571;28;19916;-53
2022/09/30 03:02:26;;;;;;;;;;;;;;;18.85;49.25;100768.03;5063766;28;20352;-52
2022/09/30 03:04:51;;;;;;;;;;;;;;;18.84;49.24;100766.38;5057800;28;19913;-54
2022/09/30 03:07:17;;;;;;;;;;;;;;;18.83;49.27;100762.00;5047713;28;19915;-54
2022/09/30 03:09:42;;;;;;;;;;;;;;;18.82;49.14;100765.72;5096243;28;19919;-53
2022/09/30 03:12:13;;;;;;;;;;;;;;;18.82;49.32;100759.47;5063890;28;19955;-50
2022/09/30 03:14:50;;;;;;;;;;;;;;;18.82;49.12;100768.41;5062368;28;19916;-53
2022/09/30 03:17:21;;;;;;;;;;;;;;;18.80;49.21;100772.28;5044235;28;19909;-54
2022/09/30 03:19:46;;;;;;;;;;;;;;;18.80;49.33;100774.97;5043689;28;19932;-54
2022/09/30 03:22:12;;;;;;;;;;;;;;;18.79;49.29;100768.75;5058837;28;20381;-53
2022/09/30 03:24:43;;;;;;;;;;;;;;;18.78;49.17;100767.06;5063979;28;19916;-49
2022/09/30 03:27:11;;;;;;;;;;;;;;;18.78;49.15;100768.94;5062813;28;19936;-52
2022/09/30 03:29:39;;;;;;;;;;;;;;;18.76;49.24;100779.84;5063593;28;19908;-54
2022/09/30 03:32:23;;;;;;;;;;;;;;;18.76;49.21;100776.31;5063542;28;20445;-52
2022/09/30 03:35:08;;;;;;;;;;;;;;;18.75;49.07;100790.81;5063643;28;19978;-54
2022/09/30 03:37:38;;;;;;;;;;;;;;;18.75;49.18;100799.72;5063219;28;19983;-50
2022/09/30 03:40:03;;;;;;;;;;;;;;;18.73;49.18;100801.72;5096137;28;19975;-50
2022/09/30 03:42:33;;;;;;;;;;;;;;;18.72;49.27;100792.81;5063509;28;19931;-53
2022/09/30 03:45:10;;;;;;;;;;;;;;;18.72;49.27;100794.66;5095615;28;19917;-51
2022/09/30 03:47:40;;;;;;;;;;;;;;;18.71;49.15;100796.53;5096140;28;19908;-51
2022/09/30 03:50:06;;;;;;;;;;;;;;;18.72;49.18;100791.97;5062057;28;19940;-54
2022/09/30 03:52:31;;;;;;;;;;;;;;;18.70;49.14;100799.41;5063457;28;19916;-54
2022/09/30 03:54:58;;;;;;;;;;;;;;;18.69;48.93;100786.88;5096239;28;19908;-51
2022/09/30 03:57:29;;;;;;;;;;;;;;;18.68;49.17;100790.59;5095556;28;19923;-51
2022/09/30 03:59:54;;;;;;;;;;;;;;;18.67;49.21;100783.53;5063095;28;19967;-55
2022/09/30 04:02:20;;;;;;;;;;;;;;;18.66;49.21;100779.19;5063337;28;19908;-50
2022/09/30 04:04:45;;;;;;;;;;;;;;;18.66;49.12;100792.63;5062998;28;19920;-58
2022/09/30 04:07:10;;;;;;;;;;;;;;;18.65;49.30;100799.88;5060446;28;19920;-60
2022/09/30 04:09:36;;;;;;;;;;;;;;;18.65;49.28;100809.81;5062132;28;19964;-60
2022/09/30 04:12:01;;;;;;;;;;;;;;;18.64;49.28;100806.25;5062930;28;20340;-59
2022/09/30 04:14:26;;;;;;;;;;;;;;;18.65;49.44;100807.13;5062430;28;19955;-59
2022/09/30 04:16:52;;;;;;;;;;;;;;;18.65;49.29;100812.50;5062941;28;19959;-58
2022/09/30 04:19:17;;;;;;;;;;;;;;;18.64;49.51;100811.63;5062943;28;19909;-58
2022/09/30 04:21:42;;;;;;;;;;;;;;;18.63;49.27;100809.97;5061885;28;20667;-58
2022/09/30 04:24:07;;;;;;;;;;;;;;;18.64;49.38;100817.03;5056875;28;19919;-56
2022/09/30 04:26:32;;;;;;;;;;;;;;;18.63;49.43;100815.34;5063200;28;19913;-56
2022/09/30 04:28:57;;;;;;;;;;;;;;;18.63;49.64;100826.13;5057127;28;19909;-56
2022/09/30 04:31:23;;;;;;;;;;;;;;;18.64;49.49;100838.56;5061593;28;19909;-57
2022/09/30 04:33:49;;;;;;;;;;;;;;;18.63;49.46;100838.75;5062543;28;20470;-56
2022/09/30 04:36:14;;;;;;;;;;;;;;;18.64;49.52;100835.03;5059042;28;19928;-59
2022/09/30 04:38:39;;;;;;;;;;;;;;;18.63;49.64;100831.50;5065001;28;19912;-55
2022/09/30 04:41:05;;;;;;;;;;;;;;;18.64;49.72;100833.19;5066028;28;19943;-54
2022/09/30 04:43:31;;;;;;;;;;;;;;;18.63;49.51;100831.50;5065605;28;19915;-53
2022/09/30 04:45:56;;;;;;;;;;;;;;;18.62;49.33;100821.75;5065992;28;20396;-53
2022/09/30 04:48:22;;;;;;;;;;;;;;;18.63;49.37;100828.81;5064758;28;20039;-54
2022/09/30 04:50:47;;;;;;;;;;;;;;;18.62;49.58;100834.38;5065542;28;19916;-55
2022/09/30 04:53:13;;;;;;;;;;;;;;;18.62;49.40;100839.75;5065969;28;19983;-54
2022/09/30 04:55:39;;;;;;;;;;;;;;;18.63;49.38;100838.75;5065807;28;19923;-56
2022/09/30 04:58:04;;;;;;;;;;;;;;;18.61;49.39;100841.63;5064404;28;19909;-55
2022/09/30 05:00:29;;;;;;;;;;;;;;;18.61;49.64;100838.09;5064968;28;19916;-53
2022/09/30 05:02:54;;;;;;;;;;;;;;;18.60;49.34;100839.06;5065665;28;20289;-55
2022/09/30 05:05:19;;;;;;;;;;;;;;;18.60;49.34;100845.31;5064537;28;19921;-56
2022/09/30 05:07:45;;;;;;;;;;;;;;;18.59;49.66;100853.56;5056430;28;19913;-59
2022/09/30 05:10:10;;;;;;;;;;;;;;;18.59;49.66;100846.31;5065869;28;19916;-59
2022/09/30 05:12:36;;;;;;;;;;;;;;;18.59;49.94;100846.31;5065684;28;19924;-58
2022/09/30 05:15:01;;;;;;;;;;;;;;;18.60;49.73;100844.47;5065288;28;19916;-58
2022/09/30 05:17:28;;;;;;;;;;;;;;;18.58;49.66;100850.03;5065424;28;19909;-56
2022/09/30 05:19:53;;;;;;;;;;;;;;;18.60;49.63;100847.16;5065363;28;20023;-55
2022/09/30 05:22:18;;;;;;;;;;;;;;;18.59;49.85;100853.56;5065525;28;19912;-59
2022/09/30 05:24:43;;;;;;;;;;;;;;;18.59;49.55;100845.47;5065527;28;20484;-56
2022/09/30 05:27:09;;;;;;;;;;;;;;;18.58;49.92;100849.19;5066358;28;19928;-57
2022/09/30 05:29:34;;;;;;;;;;;;;;;18.57;49.80;100853.75;5064506;28;19915;-59
2022/09/30 05:31:59;;;;;;;;;;;;;;;18.56;49.66;100861.97;5064239;28;19970;-58
2022/09/30 05:34:24;;;;;;;;;;;;;;;18.55;50.02;100855.75;5065322;28;19931;-58
2022/09/30 05:36:50;;;;;;;;;;;;;;;18.54;49.79;100856.75;5063958;28;19913;-55
2022/09/30 05:39:15;;;;;;;;;;;;;;;18.53;49.96;100860.47;5064436;28;19912;-58
2022/09/30 05:41:40;;;;;;;;;;;;;;;18.54;49.79;100861.31;5062829;28;19912;-56
2022/09/30 05:44:07;;;;;;;;;;;;;;;18.53;50.02;100862.31;5065373;28;19908;-54
2022/09/30 05:46:32;;;;;;;;;;;;;;;18.53;50.21;100865.00;5065260;28;19920;-59
2022/09/30 05:48:57;;;;;;;;;;;;;;;18.51;50.13;100865.16;5064753;28;19912;-59
2022/09/30 05:51:23;;;;;;;;;;;;;;;18.52;50.05;100871.38;5064753;28;20374;-56
2022/09/30 05:53:48;;;;;;;;;;;;;;;18.51;50.28;100875.94;5065421;28;19995;-56
2022/09/30 05:56:13;;;;;;;;;;;;;;;18.50;50.15;100882.31;5065316;28;19908;-54
2022/09/30 05:58:40;;;;;;;;;;;;;;;18.51;50.19;100891.25;5064956;28;19932;-55
2022/09/30 06:01:07;;;;;;;;;;;;;;;18.50;49.91;100890.41;5065378;28;19917;-58
2022/09/30 06:03:32;;;;;;;;;;;;;;;18.51;49.90;100891.25;5064739;28;19920;-58
2022/09/30 06:05:57;;;;;;;;;;;;;;;18.49;49.85;100892.25;5065364;28;19920;-58
2022/09/30 06:08:23;;;;;;;;;;;;;;;18.49;49.74;100899.50;5063835;28;19935;-56
2022/09/30 06:10:48;;;;;;;;;;;;;;;18.48;49.51;100893.28;5064530;28;19942;-56
2022/09/30 06:13:13;;;;;;;;;;;;;;;18.48;49.41;100897.81;5064099;28;19913;-50
2022/09/30 06:15:40;;;;;;;;;;;;;;;18.47;49.09;100901.50;5064919;28;20001;-57
2022/09/30 06:18:05;;;;;;;;;;;;;;;18.46;48.93;100900.66;5065029;28;20487;-59
2022/09/30 06:20:31;;;;;;;;;;;;;;;18.45;49.01;100898.97;5065214;28;19909;-58
2022/09/30 06:22:57;;;;;;;;;;;;;;;18.45;49.20;100906.22;5064853;28;19908;-59
2022/09/30 06:25:23;;;;;;;;;;;;;;;18.45;48.90;100906.22;5063749;28;19917;-60
2022/09/30 06:27:49;;;;;;;;;;;;;;;18.45;48.98;100903.53;5064550;28;19958;-58
2022/09/30 06:30:14;;;;;;;;;;;;;;;18.44;48.97;100910.78;5064350;28;19966;-55
2022/09/30 06:32:39;;;;;;;;;;;;;;;18.44;48.86;100912.63;5064257;28;19912;-57
2022/09/30 06:35:05;;;;;;;;;;;;;;;18.43;48.70;100913.59;5064838;28;19958;-59
2022/09/30 06:37:30;;;;;;;;;;;;;;;18.42;48.78;100914.63;5062035;28;19908;-59
2022/09/30 06:39:55;;;;;;;;;;;;;;;18.42;48.44;100918.16;5063813;28;19924;-55
2022/09/30 06:42:22;;;;;;;;;;;;;;;18.42;48.50;100918.16;5063231;28;19909;-59
2022/09/30 06:44:50;;;;;;;;;;;;;;;18.42;48.56;100918.16;5054904;28;19912;-59
2022/09/30 06:47:15;;;;;;;;;;;;;;;18.43;48.44;100909.06;5064682;28;19909;-59
2022/09/30 06:49:41;;;;;;;;;;;;;;;18.42;48.34;100910.06;5064238;28;19938;-57
2022/09/30 06:52:07;;;;;;;;;;;;;;;18.43;48.43;100916.28;5064266;28;20547;-59
2022/09/30 06:54:33;;;;;;;;;;;;;;;18.44;48.70;100923.38;5064547;28;19951;-55
2022/09/30 06:56:58;;;;;;;;;;;;;;;18.43;48.71;100925.22;5064222;28;19912;-56
2022/09/30 06:59:23;;;;;;;;;;;;;;;18.44;48.65;100924.22;5063099;28;19933;-57
2022/09/30 07:01:48;;;;;;;;;;;;;;;18.44;48.44;100918.00;5062755;28;19916;-56
2022/09/30 07:04:14;;;;;;;;;;;;;;;18.44;48.72;100916.16;5063089;28;19909;-59
2022/09/30 07:06:40;;;;;;;;;;;;;;;18.44;48.89;100910.78;5064276;28;19916;-58
2022/09/30 07:09:05;;;;;;;;;;;;;;;18.46;48.89;100918.66;5064373;28;19916;-59
2022/09/30 07:11:30;;;;;;;;;;;;;;;18.45;48.91;100911.59;5063254;28;19909;-54
2022/09/30 07:13:56;;;;;;;;;;;;;;;18.46;48.81;100913.28;5049316;28;19913;-55
2022/09/30 07:16:24;;;;;;;;;;;;;;;18.46;48.81;100919.50;5060798;28;19913;-55
2022/09/30 07:18:49;;;;;;;;;;;;;;;18.47;48.80;100917.66;5061396;28;19991;-57
2022/09/30 07:21:15;;;;;;;;;;;;;;;18.45;48.91;100917.81;5061901;28;19921;-58
2022/09/30 07:23:46;;;;;;;;;;;;;;;18.47;48.76;100920.34;5060331;28;19924;-58
2022/09/30 07:26:12;;;;;;;;;;;;;;;18.49;48.73;100923.72;5061049;28;19916;-58
2022/09/30 07:28:38;;;;;;;;;;;;;;;18.50;48.73;100920.03;5061313;28;19917;-59
2022/09/30 07:31:11;;;;;;;;;;;;;;;18.52;48.70;100912.63;5061169;28;19984;-58
2022/09/30 07:33:37;;;;;;;;;;;;;;;18.54;48.97;100907.91;5060248;28;19963;-59
2022/09/30 07:36:06;;;;;;;;;;;;;;;18.56;48.72;100918.50;5061504;28;19909;-59
2022/09/30 07:38:31;;;;;;;;;;;;;;;18.58;48.89;100917.34;5060080;28;19908;-61
2022/09/30 07:40:58;;;;;;;;;;;;;;;18.59;48.85;100910.94;5061973;28;19919;-59
2022/09/30 07:43:33;;;;;;;;;;;;;;;18.61;48.88;100908.94;5062555;28;19970;-56
2022/09/30 07:46:01;;;;;;;;;;;;;;;18.63;48.67;100919.53;5063244;28;19916;-57
2022/09/30 07:51:11;;;;;;;;;;;;;;;18.65;48.62;100915.69;5058345;28;19916;-56
2022/09/30 07:53:36;;;;;;;;;;;;;;;18.66;48.50;100922.75;5063047;28;19916;-57
2022/09/30 07:56:03;;;;;;;;;;;;;;;18.67;48.21;100919.03;5063600;28;19912;-55
2022/09/30 07:58:28;;;;;;;;;;;;;;;18.68;48.16;100917.19;5063024;28;20327;-59
2022/09/30 08:00:53;;;;;;;;;;;;;;;18.69;48.49;100925.16;5063206;28;20518;-56
2022/09/30 08:03:19;;;;;;;;;;;;;;;18.71;48.53;100927.66;5060793;28;19908;-55
2022/09/30 08:05:44;;;;;;;;;;;;;;;18.73;48.31;100929.19;5062927;28;19913;-58
2022/09/30 08:08:10;;;;;;;;;;;;;;;18.76;48.39;100930.69;5063206;28;19917;-59
2022/09/30 08:10:35;;;;;;;;;;;;;;;18.79;48.78;100932.22;5063089;28;20009;-57
2022/09/30 08:13:01;;;;;;;;;;;;;;;18.84;48.71;100929.84;5063997;28;20400;-55
2022/09/30 08:15:26;;;;;;;;;;;;;;;18.87;48.68;100924.97;5066582;28;19975;-58
2022/09/30 08:17:51;;;;;;;;;;;;;;;18.92;48.46;100924.47;5066792;28;19970;-55
2022/09/30 08:20:16;;;;;;;;;;;;;;;18.95;48.33;100918.75;5066774;28;19912;-62
2022/09/30 08:22:41;;;;;;;;;;;;;;;18.98;48.29;100919.22;5066245;28;20025;-55
2022/09/30 08:25:07;;;;;;;;;;;;;;;19.00;48.38;100919.09;5066817;28;19913;-58
2022/09/30 08:27:32;;;;;;;;;;;;;;;19.02;48.28;100921.59;5065510;28;20514;-59
2022/09/30 08:29:57;;;;;;;;;;;;;;;19.03;48.30;100929.53;5066615;28;20011;-56
2022/09/30 08:32:22;;;;;;;;;;;;;;;19.05;48.16;100919.41;5066183;28;19916;-55
2022/09/30 08:34:47;;;;;;;;;;;;;;;19.09;48.23;100919.94;5064528;28;19925;-50
2022/09/30 08:37:12;;;;;;;;;;;;;;;19.12;48.21;100917.75;5060504;28;20037;-53
2022/09/30 08:39:38;;;;;;;;;;;;;;;19.16;48.35;100920.94;5064737;28;19923;-51
2022/09/30 08:42:13;;;;;;;;;;;;;;;19.21;48.09;100927.50;5065345;28;20012;-52
2022/09/30 08:44:45;;;;;;;;;;;;;;;19.26;47.75;100924.28;5085562;28;19919;-54
2022/09/30 08:47:30;;;;;;;;;;;;;;;19.32;47.72;100930.84;5089648;28;19948;-59
2022/09/30 08:50:02;;;;;;;;;;;;;;;19.38;48.09;100931.00;5083909;28;19917;-59
2022/09/30 08:52:30;;;;;;;;;;;;;;;19.43;47.99;100935.88;5062377;28;19924;-59
2022/09/30 08:54:55;;;;;;;;;;;;;;;19.48;47.68;100937.03;5096065;28;19909;-58
2022/09/30 08:57:20;;;;;;;;;;;;;;;19.53;47.48;100938.38;5065880;28;19920;-55
2022/09/30 08:59:51;;;;;;;;;;;;;;;19.56;47.53;100944.28;5064844;28;19923;-55
2022/09/30 09:02:20;;;;;;;;;;;;;;;19.60;47.25;100942.94;5065476;28;19935;-55
2022/09/30 09:04:45;;;;;;;;;;;;;;;19.64;47.44;100947.00;5065909;28;19986;-55
2022/09/30 09:07:17;;;;;;;;;;;;;;;19.67;47.20;100933.16;5097717;28;19909;-59
2022/09/30 09:09:42;;;;;;;;;;;;;;;19.71;47.35;100929.13;5065894;28;19927;-59
2022/09/30 09:12:29;;;;;;;;;;;;;;;19.76;46.94;100935.84;5065711;28;19938;-56
2022/09/30 09:15:13;;;;;;;;;;;;;;;19.79;46.79;100933.63;5096398;28;19944;-59
2022/09/30 09:17:51;;;;;;;;;;;;;;;19.81;46.97;100931.59;5072989;28;20426;-58
2022/09/30 09:33:22;;;;;;;;;;;;;;;19.91;47.01;100917.91;4379051;22;19949;-72
2022/09/30 09:35:57;;;;;;;;;;;;;;;19.91;46.86;100920.59;5037713;22;19926;-52
2022/09/30 09:38:23;;;;;;;;;;;;;;;19.91;47.04;100923.28;5015994;28;19916;-58
2022/09/30 09:40:56;;;;;;;;;;;;;;;19.90;46.96;100922.47;5012660;28;19941;-58
2022/09/30 09:43:36;;;;;;;;;;;;;;;19.88;47.21;100919.09;5006485;28;19933;-57
2022/09/30 09:46:07;;;;;;;;;;;;;;;19.90;47.02;100929.72;4999981;28;19918;-58
2022/09/30 09:48:34;;;;;;;;;;;;;;;19.89;47.24;100936.13;5003461;28;19909;-57
2022/09/30 09:51:05;;;;;;;;;;;;;;;19.89;47.12;100934.28;5005647;28;19925;-56
2022/09/30 09:53:44;;;;;;;;;;;;;;;19.90;47.07;100932.41;5004410;28;19916;-54
2022/09/30 09:56:19;;;;;;;;;;;;;;;19.89;47.28;100926.19;5008350;28;19920;-52
2022/09/30 09:59:03;;;;;;;;;;;;;;;19.90;47.05;100927.84;5004911;28;19910;-57
2022/09/30 10:01:32;;;;;;;;;;;;;;;19.90;47.23;100938.66;5005301;28;19936;-58
2022/09/30 10:04:09;;;;;;;;;;;;;;;19.92;47.29;100939.34;5004440;28;19913;-57
2022/09/30 10:06:48;;;;;;;;;;;;;;;19.94;47.29;100929.19;5004626;28;19921;-59
2022/09/30 10:09:43;;;;;;;;;;;;;;;19.95;47.47;100930.03;4999576;28;19910;-53
2022/09/30 10:12:08;;;;;;;;;;;;;;;19.97;47.52;100931.53;4973516;28;19980;-52
2022/09/30 10:14:46;;;;;;;;;;;;;;;19.99;47.42;100925.97;4995970;28;20368;-54
2022/09/30 10:17:17;;;;;;;;;;;;;;;19.98;47.34;100925.13;4989008;28;19933;-53
2022/09/30 10:19:43;;;;;;;;;;;;;;;19.99;47.52;100928.66;5005867;28;19949;-54
2022/09/30 10:22:09;;;;;;;;;;;;;;;20.00;47.39;100930.34;5003514;28;19910;-55
2022/09/30 10:24:35;;;;;;;;;;;;;;;19.99;47.52;100923.25;5005581;28;19945;-55
2022/09/30 10:27:00;;;;;;;;;;;;;;;20.00;47.75;100924.94;5004771;28;20012;-54
2022/09/30 10:29:32;;;;;;;;;;;;;;;20.00;47.37;100922.25;5003992;28;19916;-53
2022/09/30 10:31:58;;;;;;;;;;;;;;;20.00;47.60;100924.09;5002601;28;20465;-55
2022/09/30 10:34:30;;;;;;;;;;;;;;;19.98;47.51;100914.31;5003993;28;19914;-52
2022/09/30 10:36:56;;;;;;;;;;;;;;;20.00;47.54;100918.69;5001093;28;20370;-52
2022/09/30 10:39:28;;;;;;;;;;;;;;;19.98;47.45;100922.44;5004997;28;19921;-54
2022/09/30 10:42:22;;;;;;;;;;;;;;;19.99;47.70;100915.16;5001686;28;19910;-54
2022/09/30 10:44:48;;;;;;;;;;;;;;;20.00;47.69;100916.00;5003265;28;19948;-53
2022/09/30 10:47:16;;;;;;;;;;;;;;;20.02;47.78;100912.13;5003604;28;19920;-55
2022/09/30 10:49:44;;;;;;;;;;;;;;;20.02;47.69;100914.81;5003461;28;19910;-55
2022/09/30 10:52:15;;;;;;;;;;;;;;;20.04;47.86;100903.84;5002942;28;19910;-53
2022/09/30 10:54:53;;;;;;;;;;;;;;;20.05;47.62;100908.22;5003613;28;19957;-55
2022/09/30 10:57:20;;;;;;;;;;;;;;;20.07;47.95;100906.19;5002480;28;19977;-54
2022/09/30 10:59:46;;;;;;;;;;;;;;;19.82;47.87;100867.69;5004002;28;19933;-54
2022/09/30 11:02:23;;;;;;;;;;;;;;;20.09;47.71;100904.16;5003319;28;19910;-54
2022/09/30 11:04:55;;;;;;;;;;;;;;;20.10;47.98;100908.56;5004491;28;19914;-55
2022/09/30 11:07:25;;;;;;;;;;;;;;;20.10;48.10;100898.59;5002287;28;19920;-55
2022/09/30 11:10:01;;;;;;;;;;;;;;;20.11;47.86;100899.44;5004923;28;19977;-53
2022/09/30 11:12:33;;;;;;;;;;;;;;;20.12;47.71;100899.25;5004667;28;19918;-55
2022/09/30 11:15:05;;;;;;;;;;;;;;;20.14;48.09;100899.09;5003969;28;19913;-52
2022/09/30 11:17:46;;;;;;;;;;;;;;;20.15;47.98;100896.19;5007869;28;19914;-55
2022/09/30 11:20:14;;;;;;;;;;;;;;;20.16;47.80;100897.03;5002176;28;19916;-53
2022/09/30 11:22:44;;;;;;;;;;;;;;;20.18;48.00;100895.00;5002553;28;20626;-52
2022/09/30 11:25:23;;;;;;;;;;;;;;;20.19;48.09;100889.44;5002550;28;19937;-55
2022/09/30 11:27:54;;;;;;;;;;;;;;;20.21;47.98;100886.53;4995710;28;19918;-59
2022/09/30 11:30:38;;;;;;;;;;;;;;;20.22;48.01;100889.09;5001493;28;19909;-57
2022/09/30 11:33:09;;;;;;;;;;;;;;;20.24;48.07;100886.19;4999941;28;19914;-59
2022/09/30 11:35:43;;;;;;;;;;;;;;;20.26;48.37;100884.13;4994919;28;19975;-57
2022/09/30 11:38:21;;;;;;;;;;;;;;;20.27;48.19;100879.59;4999662;28;19910;-58
2022/09/30 11:40:46;;;;;;;;;;;;;;;20.30;48.29;100887.31;5003365;28;19909;-57
2022/09/30 11:43:23;;;;;;;;;;;;;;;20.30;48.05;100888.16;5004078;28;19910;-62
2022/09/30 11:45:55;;;;;;;;;;;;;;;20.32;48.31;100878.03;5003861;28;19921;-59
2022/09/30 11:48:20;;;;;;;;;;;;;;;20.34;48.28;100876.00;5016815;28;19949;-57
2022/09/30 11:50:54;;;;;;;;;;;;;;;20.36;48.13;100875.84;5008292;28;19917;-57
2022/09/30 11:53:20;;;;;;;;;;;;;;;20.36;48.45;100868.56;5007811;28;20271;-60
2022/09/30 11:56:04;;;;;;;;;;;;;;;20.39;48.12;100870.06;5008150;28;19932;-59
2022/09/30 11:58:46;;;;;;;;;;;;;;;20.41;48.36;100868.88;4998530;28;20639;-54
2022/09/30 12:01:13;;;;;;;;;;;;;;;20.42;47.96;100865.13;4993686;28;19913;-59
2022/09/30 12:03:42;;;;;;;;;;;;;;;20.45;48.21;100866.66;5006076;28;19917;-59
2022/09/30 12:06:14;;;;;;;;;;;;;;;20.46;48.34;100862.91;5006785;28;19913;-57
2022/09/30 12:08:59;;;;;;;;;;;;;;;20.49;48.01;100864.47;5005611;28;19921;-59
2022/09/30 12:11:42;;;;;;;;;;;;;;;20.50;48.11;100850.78;4996721;28;20413;-59
2022/09/30 12:14:27;;;;;;;;;;;;;;;20.51;48.31;100862.41;5006397;28;19917;-58
2022/09/30 12:16:55;;;;;;;;;;;;;;;20.54;48.02;100849.38;5022827;28;19981;-59
2022/09/30 12:19:37;;;;;;;;;;;;;;;20.54;48.31;100857.50;5007340;28;19933;-58
2022/09/30 12:22:04;;;;;;;;;;;;;;;20.57;48.19;100856.31;5007461;28;19910;-56
2022/09/30 12:24:37;;;;;;;;;;;;;;;20.58;48.27;100849.88;5006702;28;19922;-60
2022/09/30 12:27:03;;;;;;;;;;;;;;;20.59;48.02;100844.28;4992435;28;19944;-59
2022/09/30 12:32:18;;;;;;;;;;;;;;;20.61;47.92;100850.34;5006310;28;19917;-57
2022/09/30 12:35:02;;;;;;;;;;;;;;;20.61;48.29;100847.66;5005788;28;19909;-57
2022/09/30 12:37:27;;;;;;;;;;;;;;;20.64;48.24;100849.97;5006836;28;19924;-57
2022/09/30 12:39:55;;;;;;;;;;;;;;;20.67;48.09;100857.72;5006920;28;19913;-59
2022/09/30 12:42:20;;;;;;;;;;;;;;;20.69;48.01;100857.56;5006774;28;19980;-59
2022/09/30 12:45:07;;;;;;;;;;;;;;;20.70;48.14;100856.53;5005491;28;20366;-60
2022/09/30 12:47:59;;;;;;;;;;;;;;;20.72;48.14;100843.66;4989621;28;19913;-59
2022/09/30 12:50:28;;;;;;;;;;;;;;;20.75;47.99;100847.88;5003905;28;19910;-59
2022/09/30 12:52:56;;;;;;;;;;;;;;;20.76;48.15;100846.84;5005685;28;19984;-59
2022/09/30 12:55:24;;;;;;;;;;;;;;;20.77;47.93;100840.41;4989433;28;19909;-59
2022/09/30 12:57:49;;;;;;;;;;;;;;;20.79;47.95;100841.91;5006350;28;19968;-58
2022/09/30 13:00:15;;;;;;;;;;;;;;;20.81;48.19;100837.16;5004404;28;19929;-60
2022/09/30 13:02:41;;;;;;;;;;;;;;;20.84;48.17;100836.81;5005311;28;19936;-60